createdAt,value
2022-07-27T00:00:59.391Z,88.20
2022-07-27T00:03:26.490Z,87.51
2022-07-27T00:05:53.122Z,87.30
2022-07-27T00:08:20.776Z,87.53
2022-07-27T00:10:47.529Z,87.51
2022-07-27T00:13:14.181Z,87.70
2022-07-27T00:15:40.809Z,88.07
2022-07-27T00:18:07.710Z,88.18
2022-07-27T00:20:34.427Z,88.20
2022-07-27T00:23:01.172Z,87.94
2022-07-27T00:25:28.047Z,88.48
2022-07-27T00:27:56.912Z,88.69
2022-07-27T00:30:24.129Z,89.29
2022-07-27T00:32:51.193Z,88.70
2022-07-27T00:35:17.822Z,88.91
2022-07-27T00:37:44.419Z,89.03
2022-07-27T00:40:11.755Z,87.91
2022-07-27T00:42:38.343Z,87.52
2022-07-27T00:45:06.191Z,86.70
2022-07-27T00:47:32.851Z,86.32
2022-07-27T00:49:59.652Z,86.49
2022-07-27T00:52:28.063Z,86.53
2022-07-27T00:54:55.021Z,86.60
2022-07-27T00:57:23.065Z,85.95
2022-07-27T00:59:49.728Z,86.58
2022-07-27T01:02:19.408Z,86.70
2022-07-27T01:04:47.386Z,86.81
2022-07-27T01:07:15.081Z,86.62
2022-07-27T01:09:57.572Z,87.16
2022-07-27T01:12:31.494Z,86.87
2022-07-27T01:14:59.612Z,87.78
2022-07-27T01:17:27.474Z,87.45
2022-07-27T01:19:54.300Z,87.31
2022-07-27T01:22:20.935Z,87.74
2022-07-27T01:24:49.608Z,89.39
2022-07-27T01:27:17.005Z,87.84
2022-07-27T01:29:43.780Z,88.17
2022-07-27T01:32:10.463Z,88.19
2022-07-27T01:34:37.103Z,87.02
2022-07-27T01:37:04.878Z,87.24
2022-07-27T01:39:32.357Z,87.33
2022-07-27T01:42:00.345Z,86.83
2022-07-27T01:44:27.408Z,86.92
2022-07-27T01:46:54.085Z,86.36
2022-07-27T01:49:21.344Z,85.80
2022-07-27T01:51:48.081Z,85.82
2022-07-27T01:54:15.101Z,85.35
2022-07-27T01:56:41.768Z,85.32
2022-07-27T01:59:08.436Z,85.21
2022-07-27T02:01:43.122Z,85.62
2022-07-27T02:04:09.744Z,85.24
2022-07-27T02:06:36.303Z,86.02
2022-07-27T02:09:03.127Z,86.43
2022-07-27T02:11:48.324Z,86.30
2022-07-27T02:14:16.407Z,86.36
2022-07-27T02:16:43.449Z,86.30
2022-07-27T02:19:11.223Z,85.97
2022-07-27T02:21:39.033Z,86.21
2022-07-27T02:24:06.324Z,86.72
2022-07-27T02:26:32.904Z,86.96
2022-07-27T02:28:59.499Z,88.38
2022-07-27T02:31:26.579Z,89.23
2022-07-27T02:33:59.709Z,88.30
2022-07-27T02:36:29.530Z,87.55
2022-07-27T02:38:57.358Z,88.36
2022-07-27T02:41:24.655Z,88.57
2022-07-27T02:43:51.428Z,88.39
2022-07-27T02:46:18.102Z,88.84
2022-07-27T02:48:44.890Z,89.09
2022-07-27T02:51:11.678Z,89.28
2022-07-27T02:53:38.199Z,88.29
2022-07-27T02:56:04.959Z,88.59
2022-07-27T02:58:31.520Z,88.61
2022-07-27T03:00:58.944Z,88.66
2022-07-27T03:03:36.852Z,88.74
2022-07-27T03:06:05.875Z,89.99
2022-07-27T03:08:32.575Z,89.84
2022-07-27T03:10:59.375Z,88.68
2022-07-27T03:13:26.659Z,88.18
2022-07-27T03:15:53.278Z,87.61
2022-07-27T03:18:19.869Z,87.52
2022-07-27T03:20:46.518Z,87.24
2022-07-27T03:23:13.345Z,88.52
2022-07-27T03:25:39.990Z,88.73
2022-07-27T03:28:06.615Z,88.86
2022-07-27T03:30:33.550Z,88.44
2022-07-27T03:33:00.276Z,89.07
2022-07-27T03:35:26.904Z,89.59
2022-07-27T03:37:53.595Z,89.44
2022-07-27T03:40:20.323Z,89.86
2022-07-27T03:42:46.921Z,89.67
2022-07-27T03:45:13.533Z,89.68
2022-07-27T03:47:40.084Z,90.38
2022-07-27T03:50:07.172Z,89.18
2022-07-27T03:52:33.834Z,89.89
2022-07-27T03:55:00.435Z,89.39
2022-07-27T03:57:27.134Z,89.01
2022-07-27T03:59:54.189Z,88.80
2022-07-27T04:02:20.785Z,89.15
2022-07-27T04:04:47.701Z,88.86
2022-07-27T04:07:14.351Z,89.11
2022-07-27T04:09:41.555Z,88.59
2022-07-27T04:12:10.600Z,88.65
2022-07-27T04:14:37.254Z,88.62
2022-07-27T04:17:04.028Z,87.89
2022-07-27T04:19:30.667Z,87.86
2022-07-27T04:21:57.496Z,88.73
2022-07-27T04:24:24.121Z,88.99
2022-07-27T04:26:50.755Z,90.14
2022-07-27T04:29:20.953Z,88.60
2022-07-27T04:31:48.177Z,88.45
2022-07-27T04:34:14.925Z,88.81
2022-07-27T04:36:41.618Z,88.87
2022-07-27T04:39:08.482Z,87.78
2022-07-27T04:41:35.263Z,89.53
2022-07-27T04:44:01.938Z,89.42
2022-07-27T04:46:32.111Z,89.75
2022-07-27T04:48:58.816Z,89.93
2022-07-27T04:51:25.538Z,88.96
2022-07-27T04:53:53.421Z,88.09
2022-07-27T04:56:26.574Z,86.87
2022-07-27T04:58:53.421Z,86.06
2022-07-27T05:01:20.166Z,85.87
2022-07-27T05:03:46.986Z,87.68
2022-07-27T05:06:13.659Z,89.37
2022-07-27T05:08:40.437Z,89.30
2022-07-27T05:11:07.080Z,88.85
2022-07-27T05:13:33.740Z,88.65
2022-07-27T05:16:00.343Z,87.75
2022-07-27T05:18:27.079Z,87.29
2022-07-27T05:20:53.805Z,86.81
2022-07-27T05:23:20.440Z,87.87
2022-07-27T05:25:47.060Z,87.42
2022-07-27T05:28:13.983Z,87.16
2022-07-27T05:30:40.728Z,87.13
2022-07-27T05:33:07.449Z,86.41
2022-07-27T05:35:34.246Z,86.05
2022-07-27T05:38:00.872Z,85.49
2022-07-27T05:40:27.735Z,85.42
2022-07-27T05:42:54.375Z,84.87
2022-07-27T05:45:21.374Z,85.18
2022-07-27T05:47:48.074Z,84.81
2022-07-27T05:50:15.794Z,83.68
2022-07-27T05:52:43.576Z,82.89
2022-07-27T05:55:10.803Z,82.39
2022-07-27T05:57:38.107Z,81.53
2022-07-27T06:00:09.051Z,80.81
2022-07-27T06:02:35.839Z,80.11
2022-07-27T06:05:02.779Z,79.91
2022-07-27T06:07:49.742Z,78.74
2022-07-27T06:10:17.029Z,78.42
2022-07-27T06:12:45.156Z,78.12
2022-07-27T06:15:13.365Z,78.37
2022-07-27T06:17:40.548Z,78.98
2022-07-27T06:20:09.178Z,78.19
2022-07-27T06:22:50.438Z,78.16
2022-07-27T06:25:17.756Z,78.70
2022-07-27T06:27:44.948Z,78.80
2022-07-27T06:30:14.036Z,78.92
2022-07-27T06:32:41.103Z,78.20
2022-07-27T06:35:12.017Z,78.07
2022-07-27T06:37:44.076Z,78.70
2022-07-27T06:40:14.601Z,78.30
2022-07-27T06:42:41.975Z,77.88
2022-07-27T06:45:09.947Z,76.26
2022-07-27T06:47:49.675Z,75.62
2022-07-27T06:50:18.359Z,76.46
2022-07-27T06:52:45.151Z,74.78
2022-07-27T06:55:12.101Z,72.96
2022-07-27T06:57:38.967Z,73.42
2022-07-27T07:00:06.900Z,72.15
2022-07-27T07:02:33.757Z,71.37
2022-07-27T07:05:00.424Z,72.69
2022-07-27T07:07:27.189Z,72.29
2022-07-27T07:09:53.779Z,72.48
2022-07-27T07:12:20.472Z,67.65
2022-07-27T07:14:47.134Z,67.67
2022-07-27T07:17:13.924Z,68.24
2022-07-27T07:19:40.564Z,68.95
2022-07-27T07:22:07.210Z,69.63
2022-07-27T07:24:33.877Z,69.18
2022-07-27T07:27:00.524Z,69.72
2022-07-27T07:29:27.798Z,70.58
2022-07-27T07:31:54.519Z,68.97
2022-07-27T07:34:21.242Z,68.18
2022-07-27T07:36:48.009Z,67.04
2022-07-27T07:39:15.271Z,67.07
2022-07-27T07:41:42.064Z,65.63
2022-07-27T07:44:10.059Z,66.85
2022-07-27T07:46:37.084Z,64.78
2022-07-27T07:49:05.007Z,64.49
2022-07-27T07:51:32.181Z,66.80
2022-07-27T07:53:59.098Z,65.55
2022-07-27T07:56:25.762Z,66.03
2022-07-27T07:58:52.348Z,66.51
2022-07-27T08:01:19.102Z,65.98
2022-07-27T08:03:50.573Z,67.67
2022-07-27T08:06:18.227Z,66.44
2022-07-27T08:08:45.164Z,67.03
2022-07-27T08:11:11.949Z,66.67
2022-07-27T08:13:38.544Z,66.94
2022-07-27T08:16:05.679Z,66.89
2022-07-27T08:18:32.842Z,67.51
2022-07-27T08:20:59.546Z,66.72
2022-07-27T08:23:27.063Z,67.94
2022-07-27T08:25:54.149Z,64.95
2022-07-27T08:28:20.862Z,65.05
2022-07-27T08:30:47.988Z,65.46
2022-07-27T08:33:16.284Z,65.79
2022-07-27T08:35:42.919Z,66.34
2022-07-27T08:38:09.659Z,65.16
2022-07-27T08:40:40.204Z,66.60
2022-07-27T08:43:09.388Z,65.60
2022-07-27T08:45:37.711Z,64.89
2022-07-27T08:48:05.237Z,65.28
2022-07-27T08:50:34.642Z,64.85
2022-07-27T08:53:05.535Z,65.90
2022-07-27T08:55:37.909Z,67.67
2022-07-27T08:58:05.291Z,67.36
2022-07-27T09:00:34.782Z,66.60
2022-07-27T09:03:01.912Z,65.80
2022-07-27T09:05:37.281Z,65.73
2022-07-27T09:08:12.071Z,66.50
2022-07-27T09:10:38.992Z,65.43
2022-07-27T09:13:27.527Z,64.71
2022-07-27T09:16:18.138Z,66.15
2022-07-27T09:18:46.325Z,65.76
2022-07-27T09:21:21.982Z,65.16
2022-07-27T09:24:45.094Z,63.99
2022-07-27T09:27:04.168Z,63.54
2022-07-27T09:29:35.476Z,63.78
2022-07-27T09:32:14.462Z,64.17
2022-07-27T09:34:41.068Z,64.65
2022-07-27T09:37:08.035Z,64.67
2022-07-27T09:39:34.689Z,61.00
2022-07-27T09:42:02.697Z,58.40
2022-07-27T09:44:53.461Z,60.66
2022-07-27T09:47:28.427Z,56.94
2022-07-27T09:50:18.797Z,59.28
2022-07-27T09:52:46.231Z,58.72
2022-07-27T09:55:12.979Z,57.37
2022-07-27T09:57:58.953Z,58.68
2022-07-27T10:00:27.295Z,58.77
2022-07-27T10:02:55.097Z,59.21
2022-07-27T10:05:22.804Z,57.90
2022-07-27T10:07:51.426Z,58.76
2022-07-27T10:10:18.309Z,56.17
2022-07-27T10:12:49.210Z,57.53
2022-07-27T10:15:18.783Z,57.53
2022-07-27T10:17:46.506Z,56.12
2022-07-27T10:20:17.029Z,58.53
2022-07-27T10:22:58.754Z,56.12
2022-07-27T10:25:27.634Z,57.09
2022-07-27T10:28:17.522Z,57.88
2022-07-27T10:30:46.259Z,57.18
2022-07-27T10:33:43.856Z,55.70
2022-07-27T10:36:19.528Z,55.58
2022-07-27T10:38:56.547Z,56.09
2022-07-27T10:41:28.396Z,56.57
2022-07-27T10:44:31.863Z,57.41
2022-07-27T10:47:03.553Z,57.94
2022-07-27T10:49:40.258Z,54.88
2022-07-27T10:52:07.480Z,56.73
2022-07-27T10:54:41.802Z,56.46
2022-07-27T10:57:09.443Z,57.38
2022-07-27T11:00:12.417Z,56.45
2022-07-27T11:02:42.688Z,56.84
2022-07-27T11:05:53.739Z,59.67
2022-07-27T11:08:36.189Z,59.37
2022-07-27T11:10:48.072Z,58.76
2022-07-27T11:13:16.974Z,57.38
2022-07-27T11:15:59.727Z,57.99
2022-07-27T11:18:32.675Z,58.19
2022-07-27T11:21:37.515Z,56.97
2022-07-27T11:24:11.050Z,57.51
2022-07-27T11:26:47.343Z,57.99
2022-07-27T11:29:16.426Z,57.71
2022-07-27T11:31:55.334Z,58.06
2022-07-27T11:34:34.764Z,58.38
2022-07-27T11:37:03.428Z,58.67
2022-07-27T11:42:23.531Z,59.33
2022-07-27T11:44:51.250Z,58.36
2022-07-27T11:47:19.613Z,59.70
2022-07-27T11:49:47.319Z,60.11
2022-07-27T11:52:17.278Z,57.98
2022-07-27T11:54:43.873Z,57.66
2022-07-27T11:57:19.056Z,57.51
2022-07-27T11:59:46.204Z,58.44
2022-07-27T12:02:18.295Z,59.85
2022-07-27T12:04:47.899Z,61.06
2022-07-27T12:07:23.832Z,59.41
2022-07-27T12:09:56.547Z,59.50
2022-07-27T12:12:25.909Z,60.86
2022-07-27T12:15:16.374Z,58.46
2022-07-27T12:17:57.261Z,58.93
2022-07-27T12:20:32.556Z,58.36
2022-07-27T12:23:05.369Z,59.63
2022-07-27T12:25:33.400Z,58.20
2022-07-27T12:28:06.187Z,56.75
2022-07-27T12:30:46.294Z,58.08
2022-07-27T12:33:38.627Z,58.57
2022-07-27T12:36:07.971Z,58.06
2022-07-27T12:38:51.065Z,57.21
2022-07-27T12:41:35.264Z,57.06
2022-07-27T12:44:05.618Z,57.59
2022-07-27T12:46:32.429Z,58.18
2022-07-27T12:48:59.196Z,59.62
2022-07-27T12:51:25.888Z,58.70
2022-07-27T12:53:52.587Z,57.75
2022-07-27T12:56:27.426Z,60.16
2022-07-27T12:58:59.836Z,58.09
2022-07-27T13:01:26.432Z,58.66
2022-07-27T13:03:53.152Z,60.18
2022-07-27T13:06:19.801Z,59.16
2022-07-27T13:08:46.467Z,57.61
2022-07-27T13:11:13.800Z,58.12
2022-07-27T13:13:40.896Z,58.41
2022-07-27T13:16:07.552Z,59.98
2022-07-27T13:18:34.247Z,57.49
2022-07-27T13:21:00.875Z,59.68
2022-07-27T13:23:27.808Z,58.63
2022-07-27T13:25:54.500Z,57.18
2022-07-27T13:28:21.117Z,57.97
2022-07-27T13:30:47.815Z,56.54
2022-07-27T13:33:14.475Z,55.17
2022-07-27T13:35:41.140Z,53.60
2022-07-27T13:38:08.553Z,54.22
2022-07-27T13:40:42.933Z,54.02
2022-07-27T13:43:12.183Z,54.13
2022-07-27T13:45:43.102Z,54.03
2022-07-27T13:48:11.894Z,56.75
2022-07-27T13:50:39.425Z,53.01
2022-07-27T13:53:05.990Z,52.41
2022-07-27T13:55:32.681Z,53.13
2022-07-27T13:57:59.309Z,53.48
2022-07-27T14:00:25.983Z,55.16
2022-07-27T14:02:53.309Z,53.48
2022-07-27T14:05:20.765Z,54.15
2022-07-27T14:07:47.414Z,54.38
2022-07-27T14:10:32.201Z,56.88
2022-07-27T14:13:07.993Z,56.99
2022-07-27T14:15:50.331Z,56.17
2022-07-27T14:18:22.474Z,54.87
2022-07-27T14:20:49.494Z,57.13
2022-07-27T14:23:16.178Z,55.79
2022-07-27T14:25:42.748Z,55.61
2022-07-27T14:28:09.336Z,53.95
2022-07-27T14:30:36.111Z,55.96
2022-07-27T14:33:03.086Z,54.57
2022-07-27T14:35:29.863Z,54.57
2022-07-27T14:37:58.389Z,54.22
2022-07-27T14:40:25.715Z,56.39
2022-07-27T14:42:52.564Z,55.88
2022-07-27T14:45:19.923Z,55.38
2022-07-27T14:47:47.042Z,54.99
2022-07-27T14:50:15.015Z,55.93
2022-07-27T14:52:41.702Z,55.50
2022-07-27T14:55:09.620Z,56.32
2022-07-27T14:57:36.975Z,57.73
2022-07-27T15:00:10.309Z,57.63
2022-07-27T15:02:38.152Z,57.33
2022-07-27T15:05:05.995Z,57.57
2022-07-27T15:07:33.294Z,57.39
2022-07-27T15:10:00.501Z,58.06
2022-07-27T15:12:27.356Z,59.74
2022-07-27T15:14:55.112Z,59.58
2022-07-27T15:17:21.739Z,60.06
2022-07-27T15:19:48.341Z,59.89
2022-07-27T15:22:15.203Z,59.50
2022-07-27T15:24:41.855Z,59.62
2022-07-27T15:27:08.796Z,58.89
2022-07-27T15:29:36.546Z,58.84
2022-07-27T15:32:03.934Z,60.57
2022-07-27T15:34:30.655Z,60.05
2022-07-27T15:36:57.507Z,59.89
2022-07-27T15:39:24.503Z,60.16
2022-07-27T15:41:51.185Z,59.72
2022-07-27T15:44:22.083Z,60.63
2022-07-27T15:46:48.890Z,60.49
2022-07-27T15:49:15.990Z,60.68
2022-07-27T15:51:43.026Z,60.47
2022-07-27T15:54:09.591Z,60.13
2022-07-27T15:56:36.175Z,60.47
2022-07-27T15:59:02.784Z,60.23
2022-07-27T16:01:35.599Z,60.66
2022-07-27T16:04:03.256Z,60.12
2022-07-27T16:06:34.014Z,60.52
2022-07-27T16:09:04.373Z,61.07
2022-07-27T16:11:31.019Z,60.36
2022-07-27T16:13:57.700Z,60.44
2022-07-27T16:16:25.212Z,60.77
2022-07-27T16:18:53.548Z,60.64
2022-07-27T16:21:22.634Z,60.78
2022-07-27T16:23:51.249Z,60.79
2022-07-27T16:26:18.374Z,61.28
2022-07-27T16:28:48.116Z,61.71
2022-07-27T16:31:16.452Z,62.13
2022-07-27T16:33:44.457Z,62.12
2022-07-27T16:36:11.425Z,62.54
2022-07-27T16:38:39.129Z,63.31
2022-07-27T16:41:17.397Z,62.94
2022-07-27T16:43:44.043Z,62.99
2022-07-27T16:46:11.842Z,62.90
2022-07-27T16:48:42.343Z,63.57
2022-07-27T16:51:10.939Z,63.79
2022-07-27T16:53:42.509Z,65.21
2022-07-27T16:56:10.187Z,64.68
2022-07-27T16:58:37.566Z,65.32
2022-07-27T17:01:05.288Z,65.57
2022-07-27T17:03:31.999Z,66.26
2022-07-27T17:06:02.194Z,66.21
2022-07-27T17:08:32.344Z,66.11
2022-07-27T17:11:00.522Z,66.75
2022-07-27T17:13:33.670Z,66.75
2022-07-27T17:16:01.360Z,67.39
2022-07-27T17:18:28.077Z,67.43
2022-07-27T17:20:54.728Z,68.09
2022-07-27T17:23:21.369Z,67.83
2022-07-27T17:25:48.216Z,68.59
2022-07-27T17:28:14.842Z,68.21
2022-07-27T17:30:41.758Z,68.35
2022-07-27T17:33:08.589Z,68.85
2022-07-27T17:35:35.336Z,69.20
2022-07-27T17:38:06.893Z,70.13
2022-07-27T17:40:34.617Z,71.15
2022-07-27T17:43:01.277Z,70.99
2022-07-27T17:45:27.937Z,71.28
2022-07-27T17:47:54.881Z,72.06
2022-07-27T17:50:21.536Z,72.83
2022-07-27T17:52:48.192Z,73.71
2022-07-27T17:55:14.819Z,73.60
2022-07-27T17:57:41.456Z,74.32
2022-07-27T18:00:10.775Z,73.73
2022-07-27T18:02:37.361Z,73.94
2022-07-27T18:05:04.367Z,73.95
2022-07-27T18:07:30.957Z,74.03
2022-07-27T18:10:06.512Z,74.59
2022-07-27T18:12:34.554Z,75.32
2022-07-27T18:15:19.799Z,74.87
2022-07-27T18:17:46.455Z,75.14
2022-07-27T18:20:13.130Z,74.67
2022-07-27T18:22:39.846Z,75.52
2022-07-27T18:25:07.747Z,77.82
2022-07-27T18:27:35.485Z,78.74
2022-07-27T18:30:04.606Z,79.14
2022-07-27T18:32:31.474Z,78.10
2022-07-27T18:34:58.140Z,77.44
2022-07-27T18:37:24.986Z,77.36
2022-07-27T18:39:51.748Z,76.51
2022-07-27T18:42:18.655Z,76.51
2022-07-27T18:44:45.353Z,75.84
2022-07-27T18:47:11.979Z,75.88
2022-07-27T18:49:38.637Z,75.02
2022-07-27T18:52:05.772Z,74.99
2022-07-27T18:54:32.497Z,74.17
2022-07-27T18:56:59.951Z,74.94
2022-07-27T18:59:26.682Z,73.83
2022-07-27T19:01:53.503Z,72.79
2022-07-27T19:04:20.186Z,72.91
2022-07-27T19:06:47.177Z,73.10
2022-07-27T19:09:14.249Z,72.33
2022-07-27T19:11:41.323Z,71.79
2022-07-27T19:14:07.954Z,72.16
2022-07-27T19:16:35.755Z,72.59
2022-07-27T19:19:02.937Z,73.04
2022-07-27T19:21:29.623Z,73.45
2022-07-27T19:23:56.621Z,72.82
2022-07-27T19:26:23.256Z,72.06
2022-07-27T19:28:51.086Z,72.46
2022-07-27T19:31:23.524Z,72.93
2022-07-27T19:33:52.296Z,73.04
2022-07-27T19:36:19.832Z,73.20
2022-07-27T19:38:46.499Z,72.99
2022-07-27T19:41:13.101Z,73.38
2022-07-27T19:43:39.805Z,73.12
2022-07-27T19:46:06.543Z,73.25
2022-07-27T19:48:33.281Z,73.33
2022-07-27T19:51:03.401Z,73.96
2022-07-27T19:53:35.030Z,73.74
2022-07-27T19:56:01.680Z,73.62
2022-07-27T19:58:28.336Z,73.94
2022-07-27T20:00:55.784Z,74.95
2022-07-27T20:03:22.934Z,75.77
2022-07-27T20:05:49.839Z,75.32
2022-07-27T20:08:16.565Z,75.21
2022-07-27T20:10:43.881Z,75.56
2022-07-27T20:13:10.574Z,75.54
2022-07-27T20:15:37.293Z,75.23
2022-07-27T20:18:04.116Z,76.01
2022-07-27T20:20:31.407Z,74.73
2022-07-27T20:22:58.500Z,75.69
2022-07-27T20:25:25.317Z,75.83
2022-07-27T20:27:52.329Z,76.00
2022-07-27T20:30:20.046Z,75.96
2022-07-27T20:32:48.843Z,76.38
2022-07-27T20:35:16.658Z,76.45
2022-07-27T20:37:45.171Z,77.04
2022-07-27T20:40:14.418Z,77.49
2022-07-27T20:42:42.729Z,78.21
2022-07-27T20:45:11.476Z,77.97
2022-07-27T20:47:38.461Z,77.50
2022-07-27T20:50:11.095Z,77.82
2022-07-27T20:52:39.265Z,78.37
2022-07-27T20:55:07.961Z,78.54
2022-07-27T20:57:35.295Z,78.81
2022-07-27T21:00:02.412Z,78.21
2022-07-27T21:02:29.059Z,78.99
2022-07-27T21:04:55.781Z,78.76
2022-07-27T21:07:22.418Z,78.71
2022-07-27T21:09:49.432Z,78.78
2022-07-27T21:12:16.227Z,78.84
2022-07-27T21:14:43.596Z,79.44
2022-07-27T21:17:10.582Z,79.47
2022-07-27T21:19:37.362Z,79.73
2022-07-27T21:22:04.096Z,80.01
2022-07-27T21:24:30.829Z,80.20
2022-07-27T21:27:03.935Z,80.05
2022-07-27T21:29:31.981Z,80.37
2022-07-27T21:31:59.071Z,80.34
2022-07-27T21:34:25.736Z,80.30
2022-07-27T21:36:52.430Z,80.08
2022-07-27T21:39:20.030Z,80.04
2022-07-27T21:41:46.746Z,79.94
2022-07-27T21:44:13.878Z,80.23
2022-07-27T21:46:40.918Z,79.88
2022-07-27T21:49:08.194Z,80.83
2022-07-27T21:51:35.032Z,81.47
2022-07-27T21:54:01.981Z,81.49
2022-07-27T21:56:28.674Z,82.25
2022-07-27T21:58:55.430Z,81.75
2022-07-27T22:01:22.521Z,81.67
2022-07-27T22:03:49.665Z,81.06
2022-07-27T22:06:16.918Z,81.31
2022-07-27T22:08:44.039Z,79.72
2022-07-27T22:11:10.699Z,79.98
2022-07-27T22:13:37.453Z,79.76
2022-07-27T22:16:05.050Z,80.23
2022-07-27T22:18:32.016Z,79.63
2022-07-27T22:20:58.689Z,79.60
2022-07-27T22:23:25.371Z,79.62
2022-07-27T22:25:52.123Z,79.70
2022-07-27T22:28:18.935Z,79.82
2022-07-27T22:31:20.683Z,80.17
2022-07-27T22:33:37.027Z,80.39
2022-07-27T22:36:06.684Z,80.48
2022-07-27T22:38:33.735Z,80.64
2022-07-27T22:41:00.401Z,81.43
2022-07-27T22:43:27.057Z,81.21
2022-07-27T22:45:53.781Z,80.88
2022-07-27T22:48:20.432Z,81.33
2022-07-27T22:50:47.583Z,81.83
2022-07-27T22:53:17.571Z,81.40
2022-07-27T22:55:44.345Z,82.10
2022-07-27T22:58:11.809Z,82.85
2022-07-27T23:00:38.793Z,83.03
2022-07-27T23:03:05.593Z,82.56
2022-07-27T23:05:32.273Z,82.75
2022-07-27T23:07:59.326Z,82.71
2022-07-27T23:10:44.487Z,82.77
2022-07-27T23:13:12.673Z,82.96
2022-07-27T23:15:39.640Z,83.29
2022-07-27T23:18:07.323Z,83.54
2022-07-27T23:20:34.021Z,83.34
2022-07-27T23:23:00.862Z,83.16
2022-07-27T23:25:36.206Z,83.12
2022-07-27T23:28:03.853Z,83.35
2022-07-27T23:30:30.910Z,83.67
2022-07-27T23:32:57.539Z,83.72
2022-07-27T23:35:24.382Z,84.05
2022-07-27T23:37:51.128Z,84.32
2022-07-27T23:40:18.552Z,84.34
2022-07-27T23:42:45.244Z,84.72
2022-07-27T23:45:12.361Z,84.77
2022-07-27T23:47:39.483Z,85.15
2022-07-27T23:50:06.839Z,84.81
2022-07-27T23:52:33.842Z,85.13
2022-07-27T23:55:00.714Z,85.20
2022-07-27T23:57:27.419Z,84.85
2022-07-27T23:59:54.245Z,85.18
